createdAt,value
2022-12-20T00:01:28.588Z,6.14
2022-12-20T00:03:58.077Z,6.18
2022-12-20T00:06:26.199Z,6.18
2022-12-20T00:08:59.505Z,6.18
2022-12-20T00:11:28.874Z,6.12
2022-12-20T00:13:56.174Z,6.08
2022-12-20T00:16:54.708Z,6.10
2022-12-20T00:19:26.777Z,6.10
2022-12-20T00:21:53.769Z,6.17
2022-12-20T00:27:37.754Z,6.21
2022-12-20T00:30:11.591Z,6.14
2022-12-20T00:32:45.636Z,6.14
2022-12-20T00:35:14.124Z,6.20
2022-12-20T00:37:41.804Z,6.21
2022-12-20T00:40:09.988Z,6.21
2022-12-20T00:42:37.727Z,6.22
2022-12-20T00:45:06.160Z,6.21
2022-12-20T00:47:33.851Z,6.21
2022-12-20T00:50:01.904Z,6.26
2022-12-20T00:52:29.745Z,6.32
2022-12-20T00:55:04.223Z,6.29
2022-12-20T00:57:31.747Z,6.32
2022-12-20T00:59:59.823Z,6.29
2022-12-20T01:05:24.907Z,6.31
2022-12-20T01:07:58.113Z,6.31
2022-12-20T01:10:30.938Z,6.31
2022-12-20T01:13:03.763Z,6.32
2022-12-20T01:15:36.883Z,6.35
2022-12-20T01:18:08.965Z,6.28
2022-12-20T01:20:35.737Z,6.33
2022-12-20T01:23:03.917Z,6.32
2022-12-20T01:25:31.704Z,6.24
2022-12-20T01:28:04.125Z,6.35
2022-12-20T01:30:31.739Z,6.31
2022-12-20T01:33:03.837Z,6.31
2022-12-20T01:35:31.820Z,6.41
2022-12-20T01:38:04.869Z,6.35
2022-12-20T01:40:33.798Z,6.38
2022-12-20T01:43:01.741Z,6.35
2022-12-20T01:45:33.862Z,6.39
2022-12-20T01:50:53.911Z,6.42
2022-12-20T01:53:28.059Z,6.41
2022-12-20T01:55:55.868Z,6.46
2022-12-20T01:58:23.887Z,6.43
2022-12-20T02:00:52.025Z,6.46
2022-12-20T02:03:20.137Z,6.48
2022-12-20T02:05:47.940Z,6.52
2022-12-20T02:08:19.364Z,6.49
2022-12-20T02:11:09.675Z,6.50
2022-12-20T02:13:59.113Z,6.56
2022-12-20T02:16:29.665Z,6.59
2022-12-20T02:19:21.727Z,6.56
2022-12-20T02:22:05.763Z,6.63
2022-12-20T02:24:58.171Z,6.57
2022-12-20T02:27:41.423Z,6.57
2022-12-20T02:33:14.399Z,6.80
2022-12-20T02:35:42.681Z,6.77
2022-12-20T02:38:38.244Z,6.72
2022-12-20T02:41:28.450Z,6.77
2022-12-20T02:44:23.935Z,6.76
2022-12-20T02:46:58.543Z,6.81
2022-12-20T02:52:48.168Z,6.86
2022-12-20T02:55:16.138Z,6.94
2022-12-20T02:58:27.903Z,7.00
2022-12-20T03:01:04.287Z,6.87
2022-12-20T03:03:38.033Z,6.97
2022-12-20T03:06:11.114Z,7.00
2022-12-20T03:08:39.724Z,7.00
2022-12-20T03:11:31.822Z,7.04
2022-12-20T03:13:59.872Z,7.11
2022-12-20T03:16:27.787Z,7.15
2022-12-20T03:19:00.727Z,7.14
2022-12-20T03:21:27.708Z,7.15
2022-12-20T03:23:55.754Z,7.14
2022-12-20T03:26:27.750Z,7.19
2022-12-20T03:28:59.689Z,7.15
2022-12-20T03:31:51.735Z,7.21
2022-12-20T03:34:19.730Z,7.22
2022-12-20T03:36:51.788Z,7.26
2022-12-20T03:39:19.739Z,7.31
2022-12-20T03:41:52.719Z,7.32
2022-12-20T03:44:19.886Z,7.35
2022-12-20T03:46:47.824Z,7.32
2022-12-20T03:49:15.887Z,7.40
2022-12-20T03:51:47.757Z,7.40
2022-12-20T03:54:15.757Z,7.47
2022-12-20T03:57:06.124Z,7.46
2022-12-20T03:59:34.038Z,7.42
2022-12-20T04:02:07.882Z,7.45
2022-12-20T04:04:35.717Z,7.47
2022-12-20T04:07:03.847Z,7.52
2022-12-20T04:15:15.890Z,7.57
2022-12-20T04:18:07.689Z,7.59
2022-12-20T04:20:39.788Z,7.59
2022-12-20T04:23:17.723Z,7.59
2022-12-20T04:25:52.114Z,7.59
2022-12-20T04:28:25.731Z,7.62
2022-12-20T04:30:56.186Z,7.60
2022-12-20T04:33:27.307Z,7.69
2022-12-20T04:35:56.241Z,7.63
2022-12-20T04:38:30.018Z,7.70
2022-12-20T04:40:58.003Z,7.71
2022-12-20T04:43:32.870Z,7.73
2022-12-20T04:46:01.931Z,7.70
2022-12-20T04:48:55.667Z,7.71
2022-12-20T04:51:18.112Z,7.69
2022-12-20T04:53:49.069Z,7.67
2022-12-20T04:56:29.279Z,7.60
2022-12-20T04:59:10.968Z,7.67
2022-12-20T05:01:39.789Z,7.71
2022-12-20T05:04:17.719Z,7.70
2022-12-20T05:06:45.700Z,7.70
2022-12-20T05:09:37.745Z,7.69
2022-12-20T05:12:29.745Z,7.60
2022-12-20T05:18:13.773Z,7.64
2022-12-20T05:21:14.476Z,7.64
2022-12-20T05:24:08.459Z,7.76
2022-12-20T05:27:06.730Z,7.71
2022-12-20T05:29:33.762Z,7.76
2022-12-20T05:32:01.700Z,7.73
2022-12-20T05:37:49.846Z,7.67
2022-12-20T05:40:22.395Z,7.71
2022-12-20T05:42:49.721Z,7.66
2022-12-20T05:45:22.727Z,7.64
2022-12-20T05:50:48.013Z,7.66
2022-12-20T05:53:28.137Z,7.64
2022-12-20T05:56:21.717Z,7.69
2022-12-20T06:02:07.848Z,7.60
2022-12-20T06:04:38.365Z,7.66
2022-12-20T06:07:18.759Z,7.57
2022-12-20T06:12:57.757Z,7.62
2022-12-20T06:15:25.780Z,7.53
2022-12-20T06:17:58.893Z,7.64
2022-12-20T06:20:25.868Z,7.64
2022-12-20T06:22:53.934Z,7.60
2022-12-20T06:25:21.734Z,7.62
2022-12-20T06:27:54.826Z,7.66
2022-12-20T06:30:21.849Z,7.60
2022-12-20T06:33:07.166Z,7.63
2022-12-20T06:35:42.132Z,7.70
2022-12-20T06:38:37.338Z,7.67
2022-12-20T06:41:07.521Z,7.70
2022-12-20T06:43:36.884Z,7.73
2022-12-20T06:46:06.390Z,7.67
2022-12-20T06:48:38.759Z,7.69
2022-12-20T06:51:07.882Z,7.70
2022-12-20T06:53:35.760Z,7.73
2022-12-20T06:56:04.166Z,7.76
2022-12-20T06:58:37.733Z,7.74
2022-12-20T07:01:06.090Z,7.71
2022-12-20T07:03:37.875Z,7.79
2022-12-20T07:06:05.976Z,7.79
2022-12-20T07:08:33.760Z,7.74
2022-12-20T07:11:13.367Z,7.74
2022-12-20T07:13:41.705Z,7.77
2022-12-20T07:16:10.138Z,7.79
2022-12-20T07:18:43.747Z,7.79
2022-12-20T07:21:19.048Z,7.87
2022-12-20T07:23:47.611Z,7.81
2022-12-20T07:26:15.882Z,7.87
2022-12-20T07:28:43.830Z,7.77
2022-12-20T07:31:11.836Z,7.86
2022-12-20T07:33:40.090Z,7.81
2022-12-20T07:36:16.388Z,7.89
2022-12-20T07:38:43.962Z,7.90
2022-12-20T07:41:14.811Z,7.89
2022-12-20T07:43:42.654Z,7.87
2022-12-20T07:46:19.524Z,7.93
2022-12-20T07:48:47.699Z,7.87
2022-12-20T07:51:21.520Z,7.91
2022-12-20T07:54:06.764Z,7.93
2022-12-20T07:56:41.167Z,7.94
2022-12-20T07:59:12.437Z,7.93
2022-12-20T08:02:07.648Z,7.94
2022-12-20T08:04:35.810Z,7.95
2022-12-20T08:07:29.913Z,7.97
2022-12-20T08:10:01.971Z,7.97
2022-12-20T08:12:31.015Z,7.93
2022-12-20T08:14:58.394Z,7.93
2022-12-20T08:17:25.798Z,8.00
2022-12-20T08:19:53.732Z,7.93
2022-12-20T08:22:25.912Z,7.95
2022-12-20T08:24:53.715Z,8.01
2022-12-20T08:27:25.765Z,7.98
2022-12-20T08:29:53.804Z,8.04
2022-12-20T08:32:21.748Z,8.02
2022-12-20T08:34:49.837Z,8.01
2022-12-20T08:37:17.815Z,8.01
2022-12-20T08:39:45.776Z,8.07
2022-12-20T08:42:17.752Z,8.07
2022-12-20T08:44:45.885Z,8.04
2022-12-20T08:47:18.222Z,8.01
2022-12-20T08:49:47.894Z,8.02
2022-12-20T08:52:15.783Z,8.08
2022-12-20T08:55:12.759Z,8.12
2022-12-20T08:57:41.737Z,8.07
2022-12-20T09:00:11.264Z,8.10
2022-12-20T09:02:41.314Z,8.08
2022-12-20T09:05:10.154Z,8.15
2022-12-20T09:07:43.740Z,8.14
2022-12-20T09:10:37.598Z,8.15
2022-12-20T09:13:05.809Z,8.14
2022-12-20T09:15:35.304Z,8.17
2022-12-20T09:18:07.779Z,8.17
2022-12-20T09:20:35.747Z,8.24
2022-12-20T09:23:03.754Z,8.29
2022-12-20T09:25:33.154Z,8.22
2022-12-20T09:28:01.750Z,8.29
2022-12-20T09:30:29.732Z,8.32
2022-12-20T09:35:55.127Z,8.33
2022-12-20T09:38:21.755Z,8.35
2022-12-20T09:41:01.157Z,8.28
2022-12-20T09:43:30.279Z,8.38
2022-12-20T09:46:00.107Z,8.40
2022-12-20T09:48:40.505Z,8.39
2022-12-20T09:51:13.858Z,8.48
2022-12-20T09:54:07.111Z,8.48
2022-12-20T09:56:39.505Z,8.46
2022-12-20T09:59:14.829Z,8.56
2022-12-20T10:01:53.041Z,8.57
2022-12-20T10:04:19.907Z,8.63
2022-12-20T10:07:13.177Z,8.67
2022-12-20T10:10:14.764Z,8.71
2022-12-20T10:12:55.119Z,8.77
2022-12-20T10:15:28.649Z,8.74
2022-12-20T10:18:35.707Z,8.73
2022-12-20T10:21:24.298Z,8.77
2022-12-20T10:24:15.443Z,8.84
2022-12-20T10:26:43.916Z,8.90
2022-12-20T10:29:11.887Z,8.98
2022-12-20T10:32:18.755Z,9.08
2022-12-20T10:35:16.108Z,9.01
2022-12-20T10:38:17.436Z,9.03
2022-12-20T10:44:07.682Z,8.94
2022-12-20T10:46:42.147Z,9.08
2022-12-20T10:49:31.202Z,9.03
2022-12-20T10:52:03.918Z,9.11
2022-12-20T10:54:48.861Z,9.14
2022-12-20T10:57:24.731Z,9.15
2022-12-20T10:59:54.997Z,9.10
2022-12-20T11:02:38.953Z,9.03
2022-12-20T11:05:10.726Z,9.16
2022-12-20T11:11:18.718Z,9.16
2022-12-20T11:13:46.927Z,9.14
2022-12-20T11:16:31.452Z,9.19
2022-12-20T11:19:21.602Z,9.19
2022-12-20T11:22:05.924Z,9.19
2022-12-20T11:24:53.566Z,9.26
2022-12-20T11:27:41.745Z,9.33
2022-12-20T11:33:36.549Z,9.39
2022-12-20T11:39:03.662Z,9.40
2022-12-20T11:41:57.218Z,9.36
2022-12-20T11:45:09.328Z,9.44
2022-12-20T11:48:06.412Z,9.42
2022-12-20T11:50:43.762Z,9.46
2022-12-20T11:53:32.614Z,9.46
2022-12-20T11:56:57.119Z,9.52
2022-12-20T11:59:52.149Z,9.56
2022-12-20T12:02:29.805Z,9.54
2022-12-20T12:05:06.089Z,9.52
2022-12-20T12:08:06.035Z,9.50
2022-12-20T12:10:44.237Z,9.57
2022-12-20T12:13:18.966Z,9.53
2022-12-20T12:16:06.996Z,9.52
2022-12-20T12:18:42.130Z,9.52
2022-12-20T12:21:40.516Z,9.57
2022-12-20T12:24:14.321Z,9.54
2022-12-20T12:27:08.002Z,9.61
2022-12-20T12:30:05.300Z,9.61
2022-12-20T12:32:55.417Z,9.53
2022-12-20T12:35:55.063Z,9.63
2022-12-20T12:38:33.965Z,9.50
2022-12-20T12:41:27.116Z,9.57
2022-12-20T12:43:56.590Z,9.53
2022-12-20T12:46:35.924Z,9.42
2022-12-20T12:49:17.642Z,9.40
2022-12-20T12:54:47.834Z,9.39
2022-12-20T12:57:18.158Z,9.49
2022-12-20T12:59:48.575Z,9.46
2022-12-20T13:02:16.375Z,9.43
2022-12-20T13:04:58.937Z,9.46
2022-12-20T13:07:32.017Z,9.52
2022-12-20T13:10:06.862Z,9.35
2022-12-20T13:12:36.796Z,9.50
2022-12-20T13:15:28.783Z,9.52
2022-12-20T13:18:11.052Z,9.64
2022-12-20T13:20:39.837Z,9.59
2022-12-20T13:23:07.669Z,9.50
2022-12-20T13:25:48.569Z,9.47
2022-12-20T13:28:16.648Z,9.60
2022-12-20T13:30:50.632Z,9.63
2022-12-20T13:33:48.688Z,9.56
2022-12-20T13:37:25.755Z,9.59
2022-12-20T13:39:54.317Z,9.53
2022-12-20T13:42:21.661Z,9.44
2022-12-20T13:44:54.863Z,9.43
2022-12-20T13:48:06.357Z,9.54
2022-12-20T13:50:41.633Z,9.53
2022-12-20T13:53:19.993Z,9.54
2022-12-20T13:55:48.834Z,9.54
2022-12-20T13:58:27.714Z,9.56
2022-12-20T14:01:23.652Z,9.43
2022-12-20T14:03:53.231Z,9.52
2022-12-20T14:06:26.964Z,9.47
2022-12-20T14:08:55.731Z,9.36
2022-12-20T14:11:26.981Z,9.36
2022-12-20T14:14:01.035Z,9.33
2022-12-20T14:16:33.773Z,9.35
2022-12-20T14:19:13.054Z,9.38
2022-12-20T14:21:45.232Z,9.26
2022-12-20T14:24:20.007Z,9.31
2022-12-20T14:26:51.497Z,9.29
2022-12-20T14:32:28.058Z,9.33
2022-12-20T14:34:56.124Z,9.25
2022-12-20T14:37:23.697Z,9.28
2022-12-20T14:39:57.943Z,9.25
2022-12-20T14:42:35.569Z,9.28
2022-12-20T14:45:10.703Z,9.28
2022-12-20T14:47:53.172Z,9.18
2022-12-20T14:50:30.978Z,9.29
2022-12-20T14:53:04.014Z,9.24
2022-12-20T14:55:36.499Z,9.29
2022-12-20T14:58:35.034Z,9.28
2022-12-20T15:01:15.891Z,9.24
2022-12-20T15:06:54.972Z,9.28
2022-12-20T15:09:21.861Z,9.28
2022-12-20T15:11:51.703Z,9.31
2022-12-20T15:14:39.276Z,9.31
2022-12-20T15:17:14.491Z,9.29
2022-12-20T15:19:42.922Z,9.25
2022-12-20T15:22:17.916Z,9.22
2022-12-20T15:25:19.060Z,9.19
2022-12-20T15:27:45.727Z,9.22
2022-12-20T15:30:14.154Z,8.98
2022-12-20T15:32:54.671Z,9.04
2022-12-20T15:35:53.513Z,9.01
2022-12-20T15:38:40.919Z,9.15
2022-12-20T15:41:17.719Z,9.11
2022-12-20T15:43:58.828Z,9.15
2022-12-20T15:46:32.532Z,9.12
2022-12-20T15:49:30.296Z,9.15
2022-12-20T15:51:57.997Z,9.10
2022-12-20T15:54:27.697Z,9.10
2022-12-20T15:57:21.843Z,9.12
2022-12-20T16:02:49.714Z,9.04
2022-12-20T16:05:17.862Z,9.05
2022-12-20T16:07:45.896Z,9.03
2022-12-20T16:10:15.282Z,9.10
2022-12-20T16:12:43.876Z,9.07
2022-12-20T16:15:27.455Z,9.07
2022-12-20T16:18:21.727Z,9.05
2022-12-20T16:20:54.781Z,9.05
2022-12-20T16:23:24.536Z,9.08
2022-12-20T16:26:20.059Z,8.97
2022-12-20T16:28:48.812Z,8.95
2022-12-20T16:31:31.600Z,8.98
2022-12-20T16:34:05.019Z,9.03
2022-12-20T16:36:33.006Z,8.94
2022-12-20T16:38:59.973Z,8.91
2022-12-20T16:41:38.814Z,8.97
2022-12-20T16:44:06.772Z,8.94
2022-12-20T16:46:34.825Z,8.97
2022-12-20T16:49:32.782Z,9.11
2022-12-20T16:52:00.089Z,9.01
2022-12-20T16:54:27.854Z,8.87
2022-12-20T16:57:22.002Z,8.91
2022-12-20T16:59:49.796Z,8.91
2022-12-20T17:02:44.647Z,8.91
2022-12-20T17:05:44.510Z,8.84
2022-12-20T17:11:06.734Z,8.90
2022-12-20T17:13:33.778Z,8.93
2022-12-20T17:18:55.333Z,9.03
2022-12-20T17:21:23.768Z,9.04
2022-12-20T17:23:57.660Z,9.10
2022-12-20T17:26:28.133Z,9.04
2022-12-20T17:28:58.695Z,9.04
2022-12-20T17:31:34.316Z,9.05
2022-12-20T17:34:03.769Z,9.11
2022-12-20T17:36:37.799Z,9.04
2022-12-20T17:39:11.811Z,8.95
2022-12-20T17:41:40.179Z,9.07
2022-12-20T17:44:16.521Z,8.98
2022-12-20T17:46:50.248Z,9.08
2022-12-20T17:49:18.207Z,9.03
2022-12-20T17:51:46.766Z,9.04
2022-12-20T17:57:31.787Z,9.07
2022-12-20T18:00:04.142Z,9.05
2022-12-20T18:02:32.003Z,9.04
2022-12-20T18:04:59.745Z,9.12
2022-12-20T18:07:31.770Z,9.11
2022-12-20T18:10:00.164Z,9.11
2022-12-20T18:12:30.376Z,9.18
2022-12-20T18:15:02.290Z,9.16
2022-12-20T18:17:29.733Z,9.18
2022-12-20T18:19:57.847Z,9.14
2022-12-20T18:22:25.728Z,9.16
2022-12-20T18:24:58.217Z,9.07
2022-12-20T18:27:31.145Z,9.15
2022-12-20T18:29:59.704Z,9.10
2022-12-20T18:32:52.610Z,9.11
2022-12-20T18:35:19.730Z,9.10
2022-12-20T18:37:51.987Z,9.10
2022-12-20T18:40:19.706Z,9.11
2022-12-20T18:42:48.185Z,9.03
2022-12-20T18:45:41.794Z,9.16
2022-12-20T18:48:09.745Z,9.15
2022-12-20T18:53:37.289Z,9.18
2022-12-20T18:56:11.429Z,9.16
2022-12-20T19:01:34.415Z,9.19
2022-12-20T19:04:09.163Z,9.15
2022-12-20T19:06:38.700Z,9.19
2022-12-20T19:09:11.749Z,9.21
2022-12-20T19:11:40.674Z,9.24
2022-12-20T19:14:13.641Z,9.19
2022-12-20T19:16:41.826Z,9.28
2022-12-20T19:22:53.947Z,9.28
2022-12-20T19:25:25.862Z,9.22
2022-12-20T19:28:20.357Z,9.19
2022-12-20T19:30:54.066Z,9.26
2022-12-20T19:33:21.951Z,9.26
2022-12-20T19:35:56.106Z,9.22
2022-12-20T19:38:23.905Z,9.14
2022-12-20T19:40:53.821Z,9.22
2022-12-20T19:43:27.054Z,9.21
2022-12-20T19:45:56.199Z,9.22
2022-12-20T19:48:25.656Z,9.15
2022-12-20T19:51:12.460Z,9.12
2022-12-20T19:53:41.085Z,9.19
2022-12-20T19:56:17.454Z,9.19
2022-12-20T19:58:46.063Z,9.24
2022-12-20T20:01:40.377Z,9.15
2022-12-20T20:04:10.176Z,9.19
2022-12-20T20:06:44.095Z,9.33
2022-12-20T20:09:11.967Z,9.21
2022-12-20T20:11:40.026Z,9.19
2022-12-20T20:14:15.777Z,9.22
2022-12-20T20:16:44.158Z,9.31
2022-12-20T20:19:12.314Z,9.31
2022-12-20T20:21:44.911Z,9.32
2022-12-20T20:24:11.908Z,9.40
2022-12-20T20:26:40.079Z,9.31
2022-12-20T20:29:10.428Z,9.33
2022-12-20T20:34:30.621Z,9.29
2022-12-20T20:40:20.874Z,9.24
2022-12-20T20:42:47.734Z,9.25
2022-12-20T20:45:16.905Z,9.33
2022-12-20T20:50:38.292Z,9.26
2022-12-20T20:53:34.271Z,9.33
2022-12-20T20:56:05.984Z,9.31
2022-12-20T20:58:35.335Z,9.32
2022-12-20T21:01:08.462Z,9.29
2022-12-20T21:03:41.661Z,9.33
2022-12-20T21:06:39.035Z,9.43
2022-12-20T21:09:07.838Z,9.25
2022-12-20T21:11:37.013Z,9.26
2022-12-20T21:14:05.738Z,9.24
2022-12-20T21:16:45.433Z,9.26
2022-12-20T21:19:14.463Z,9.29
2022-12-20T21:21:41.811Z,9.38
2022-12-20T21:24:09.717Z,9.35
2022-12-20T21:26:37.902Z,9.40
2022-12-20T21:29:05.692Z,9.42
2022-12-20T21:31:33.887Z,9.35
2022-12-20T21:36:53.695Z,9.47
2022-12-20T21:42:13.802Z,9.38
2022-12-20T21:44:41.761Z,9.43
2022-12-20T21:47:11.191Z,9.42
2022-12-20T21:49:39.739Z,9.38
2022-12-20T21:52:07.929Z,9.26
2022-12-20T21:54:35.840Z,9.36
2022-12-20T21:57:03.886Z,9.40
2022-12-20T21:59:36.756Z,9.44
2022-12-20T22:02:05.115Z,9.46
2022-12-20T22:04:34.486Z,9.44
2022-12-20T22:07:01.731Z,9.38
2022-12-20T22:09:29.736Z,9.44
2022-12-20T22:12:21.703Z,9.52
2022-12-20T22:14:49.722Z,9.49
2022-12-20T22:17:17.726Z,9.50
2022-12-20T22:19:45.757Z,9.46
2022-12-20T22:22:19.065Z,9.54
2022-12-20T22:24:51.859Z,9.53
2022-12-20T22:27:19.803Z,9.44
2022-12-20T22:29:47.790Z,9.46
2022-12-20T22:32:15.861Z,9.44
2022-12-20T22:34:43.769Z,9.35
2022-12-20T22:37:11.729Z,9.32
2022-12-20T22:39:39.771Z,9.39
2022-12-20T22:42:11.837Z,9.43
2022-12-20T22:44:39.996Z,9.44
2022-12-20T22:47:08.312Z,9.43
2022-12-20T22:49:35.709Z,9.44
2022-12-20T22:52:07.625Z,9.47
2022-12-20T22:54:39.786Z,9.36
2022-12-20T22:57:10.337Z,9.42
2022-12-20T22:59:37.815Z,9.32
2022-12-20T23:02:06.159Z,9.38
2022-12-20T23:04:39.095Z,9.44
2022-12-20T23:07:07.321Z,9.52
2022-12-20T23:09:35.714Z,9.47
2022-12-20T23:12:32.827Z,9.43
2022-12-20T23:15:30.736Z,9.42
2022-12-20T23:17:58.450Z,9.49
2022-12-20T23:20:44.022Z,9.43
2022-12-20T23:23:11.735Z,9.44
2022-12-20T23:25:50.514Z,9.44
2022-12-20T23:28:23.716Z,9.44
2022-12-20T23:30:51.727Z,9.47
2022-12-20T23:33:19.720Z,9.46
2022-12-20T23:36:01.538Z,9.40
2022-12-20T23:38:34.391Z,9.39
2022-12-20T23:41:28.478Z,9.53
2022-12-20T23:44:26.841Z,9.53
2022-12-20T23:46:58.751Z,9.54
2022-12-20T23:49:25.850Z,9.57
2022-12-20T23:51:57.700Z,9.49
2022-12-20T23:54:25.819Z,9.50
2022-12-20T23:56:53.812Z,9.47
2022-12-20T23:59:21.850Z,9.54
